createdAt,value
2023-04-24T00:02:04.480Z,94659.19
2023-04-24T00:04:34.331Z,94658.09
2023-04-24T00:07:04.121Z,94658.38
2023-04-24T00:09:33.546Z,94658.09
2023-04-24T00:12:04.683Z,94662.72
2023-04-24T00:14:35.876Z,94658.94
2023-04-24T00:17:05.657Z,94657.09
2023-04-24T00:19:35.137Z,94655.97
2023-04-24T00:22:05.155Z,94663.22
2023-04-24T00:24:34.535Z,94662.19
2023-04-24T00:27:04.108Z,94655.75
2023-04-24T00:29:34.992Z,94659.50
2023-04-24T00:32:05.019Z,94653.28
2023-04-24T00:34:36.036Z,94665.69
2023-04-24T00:37:06.273Z,94666.47
2023-04-24T00:39:35.765Z,94670.53
2023-04-24T00:42:07.376Z,94659.78
2023-04-24T00:44:38.275Z,94657.97
2023-04-24T00:47:07.866Z,94660.94
2023-04-24T00:49:37.411Z,94659.09
2023-04-24T00:52:09.747Z,94656.41
2023-04-24T00:54:39.240Z,94653.00
2023-04-24T00:57:08.999Z,94653.81
2023-04-24T00:59:42.229Z,94656.28
2023-04-24T01:02:13.346Z,94654.31
2023-04-24T01:04:43.219Z,94654.88
2023-04-24T01:07:12.868Z,94655.25
2023-04-24T01:09:43.766Z,94651.25
2023-04-24T01:12:13.770Z,94651.28
2023-04-24T01:14:45.141Z,94647.22
2023-04-24T01:17:14.604Z,94647.72
2023-04-24T01:19:45.966Z,94639.72
2023-04-24T01:22:18.241Z,94637.56
2023-04-24T01:24:47.904Z,94634.94
2023-04-24T01:27:17.848Z,94634.41
2023-04-24T01:29:50.314Z,94634.41
2023-04-24T01:32:20.747Z,94643.28
2023-04-24T01:34:51.322Z,94634.41
2023-04-24T01:37:22.249Z,94631.75
2023-04-24T01:39:52.784Z,94641.13
2023-04-24T01:42:22.594Z,94635.00
2023-04-24T01:44:52.758Z,94631.03
2023-04-24T01:47:22.680Z,94626.75
2023-04-24T01:49:54.231Z,94639.09
2023-04-24T01:52:25.686Z,94638.00
2023-04-24T01:54:56.743Z,94635.34
2023-04-24T01:57:26.475Z,94638.28
2023-04-24T01:59:55.949Z,94644.19
2023-04-24T02:02:28.452Z,94644.44
2023-04-24T02:05:00.226Z,94638.81
2023-04-24T02:07:32.015Z,94635.34
2023-04-24T02:10:01.899Z,94635.34
2023-04-24T02:12:31.464Z,94635.34
2023-04-24T02:15:01.430Z,94640.44
2023-04-24T02:17:32.431Z,94638.81
2023-04-24T02:20:02.002Z,94640.41
2023-04-24T02:22:32.818Z,94643.34
2023-04-24T02:25:06.095Z,94637.19
2023-04-24T02:27:35.854Z,94636.94
2023-04-24T02:30:10.870Z,94642.47
2023-04-24T02:32:40.396Z,94633.63
2023-04-24T02:35:13.327Z,94643.63
2023-04-24T02:37:44.212Z,94634.50
2023-04-24T02:40:15.718Z,94638.28
2023-04-24T02:42:45.677Z,94637.72
2023-04-24T02:45:15.463Z,94647.38
2023-04-24T02:47:45.932Z,94646.31
2023-04-24T02:50:15.459Z,94647.66
2023-04-24T02:52:46.305Z,94642.47
2023-04-24T02:55:15.830Z,94648.94
2023-04-24T02:57:45.614Z,94648.94
2023-04-24T03:00:16.227Z,94645.69
2023-04-24T03:02:45.847Z,94645.22
2023-04-24T03:05:15.437Z,94646.59
2023-04-24T03:07:46.587Z,94645.50
2023-04-24T03:10:16.182Z,94637.25
2023-04-24T03:12:45.621Z,94637.22
2023-04-24T03:15:15.069Z,94640.75
2023-04-24T03:17:44.549Z,94635.63
2023-04-24T03:20:14.270Z,94627.88
2023-04-24T03:22:45.450Z,94633.50
2023-04-24T03:25:15.091Z,94634.56
2023-04-24T03:27:44.714Z,94631.88
2023-04-24T03:30:26.287Z,94627.34
2023-04-24T03:33:00.807Z,94627.09
2023-04-24T03:35:33.372Z,94630.03
2023-04-24T03:38:07.379Z,94628.97
2023-04-24T03:40:46.889Z,94629.81
2023-04-24T03:43:35.582Z,94630.09
2023-04-24T03:46:06.064Z,94626.38
2023-04-24T03:48:39.805Z,94636.25
2023-04-24T03:51:11.138Z,94632.78
2023-04-24T03:53:45.048Z,94627.41
2023-04-24T03:56:17.511Z,94632.25
2023-04-24T03:58:47.167Z,94626.34
2023-04-24T04:01:17.153Z,94626.09
2023-04-24T04:03:55.173Z,94626.38
2023-04-24T04:06:27.936Z,94630.63
2023-04-24T04:09:00.720Z,94623.66
2023-04-24T04:11:30.426Z,94626.56
2023-04-24T04:13:59.863Z,94631.66
2023-04-24T04:16:29.336Z,94631.34
2023-04-24T04:19:05.119Z,94629.75
2023-04-24T04:21:34.575Z,94630.03
2023-04-24T04:24:23.462Z,94629.75
2023-04-24T04:26:57.414Z,94637.22
2023-04-24T04:29:41.627Z,94635.91
2023-04-24T04:32:13.707Z,94637.00
2023-04-24T04:34:43.829Z,94640.47
2023-04-24T04:37:15.422Z,94647.69
2023-04-24T04:39:55.557Z,94639.38
2023-04-24T04:42:29.343Z,94635.91
2023-04-24T04:44:59.258Z,94642.88
2023-04-24T04:47:38.451Z,94643.16
2023-04-24T04:50:09.608Z,94651.19
2023-04-24T04:52:39.343Z,94648.25
2023-04-24T04:55:22.041Z,94659.50
2023-04-24T04:58:09.493Z,94657.66
2023-04-24T05:00:40.147Z,94652.28
2023-04-24T05:03:21.376Z,94649.06
2023-04-24T05:05:56.048Z,94638.59
2023-04-24T05:08:29.617Z,94655.47
2023-04-24T05:11:00.834Z,94653.31
2023-04-24T05:13:40.790Z,94657.06
2023-04-24T05:16:29.815Z,94666.16
2023-04-24T05:18:59.726Z,94665.34
2023-04-24T05:21:33.977Z,94661.06
2023-04-24T05:24:03.833Z,94663.75
2023-04-24T05:26:54.941Z,94667.94
2023-04-24T05:29:28.852Z,94662.84
2023-04-24T05:31:58.439Z,94671.94
2023-04-24T05:34:28.769Z,94676.50
2023-04-24T05:36:59.761Z,94675.72
2023-04-24T05:39:29.474Z,94676.75
2023-04-24T05:42:00.501Z,94674.88
2023-04-24T05:44:30.017Z,94671.91
2023-04-24T05:46:59.477Z,94678.50
2023-04-24T05:49:29.568Z,94674.72
2023-04-24T05:51:59.894Z,94676.78
2023-04-24T05:54:29.441Z,94682.97
2023-04-24T05:57:02.359Z,94681.88
2023-04-24T05:59:43.003Z,94676.19
2023-04-24T06:02:13.811Z,94683.63
2023-04-24T06:04:43.756Z,94680.97
2023-04-24T06:07:13.730Z,94677.22
2023-04-24T06:09:45.968Z,94681.75
2023-04-24T06:12:16.905Z,94683.56
2023-04-24T06:15:03.812Z,94685.44
2023-04-24T06:18:06.262Z,94688.06
2023-04-24T06:20:36.449Z,94686.22
2023-04-24T06:23:05.934Z,94691.31
2023-04-24T06:25:36.872Z,94699.00
2023-04-24T06:28:08.607Z,94694.69
2023-04-24T06:30:38.614Z,94705.72
2023-04-24T06:33:19.317Z,94707.31
2023-04-24T06:35:50.274Z,94706.59
2023-04-24T06:38:19.708Z,94706.53
2023-04-24T06:40:49.237Z,94707.31
2023-04-24T06:43:20.360Z,94712.66
2023-04-24T06:45:49.974Z,94706.16
2023-04-24T06:48:19.427Z,94712.53
2023-04-24T06:50:48.883Z,94704.75
2023-04-24T06:53:18.486Z,94706.00
2023-04-24T06:55:48.042Z,94713.50
2023-04-24T06:58:18.940Z,94723.16
2023-04-24T07:00:48.449Z,94726.88
2023-04-24T07:03:18.127Z,94723.03
2023-04-24T07:05:48.679Z,94717.00
2023-04-24T07:08:19.198Z,94720.78
2023-04-24T07:10:48.732Z,94726.78
2023-04-24T07:13:19.742Z,94727.81
2023-04-24T07:15:51.261Z,94725.66
2023-04-24T07:18:20.843Z,94726.47
2023-04-24T07:20:51.089Z,94733.84
2023-04-24T07:23:21.680Z,94730.28
2023-04-24T07:25:51.218Z,94741.00
2023-04-24T07:28:22.078Z,94738.75
2023-04-24T07:30:51.546Z,94746.53
2023-04-24T07:33:21.134Z,94737.44
2023-04-24T07:35:50.689Z,94748.38
2023-04-24T07:38:22.096Z,94731.09
2023-04-24T07:40:51.679Z,94742.66
2023-04-24T07:43:23.092Z,94733.47
2023-04-24T07:45:52.714Z,94744.97
2023-04-24T07:48:23.231Z,94745.44
2023-04-24T07:50:52.694Z,94738.91
2023-04-24T07:53:22.150Z,94751.50
2023-04-24T07:55:51.680Z,94751.09
2023-04-24T07:58:22.465Z,94762.72
2023-04-24T08:00:51.954Z,94755.59
2023-04-24T08:03:21.772Z,94759.81
2023-04-24T08:05:52.009Z,94760.66
2023-04-24T08:08:25.049Z,94767.13
2023-04-24T08:10:54.533Z,94779.84
2023-04-24T08:13:25.345Z,94792.09
2023-04-24T08:15:54.876Z,94781.28
2023-04-24T08:18:24.934Z,94794.09
2023-04-24T08:20:54.647Z,94798.31
2023-04-24T08:23:24.148Z,94795.28
2023-04-24T08:25:53.615Z,94796.81
2023-04-24T08:28:24.456Z,94807.81
2023-04-24T08:30:55.680Z,94806.66
2023-04-24T08:33:26.213Z,94803.59
2023-04-24T08:35:55.660Z,94811.28
2023-04-24T08:38:25.775Z,94811.06
2023-04-24T08:40:55.423Z,94811.06
2023-04-24T08:43:27.131Z,94815.47
2023-04-24T08:46:00.346Z,94808.78
2023-04-24T08:48:32.107Z,94817.72
2023-04-24T08:51:02.504Z,94820.16
2023-04-24T08:53:34.673Z,94818.31
2023-04-24T08:56:05.413Z,94822.84
2023-04-24T08:58:37.710Z,94823.84
2023-04-24T09:01:07.702Z,94823.06
2023-04-24T09:03:38.109Z,94829.34
2023-04-24T09:06:10.436Z,94825.28
2023-04-24T09:08:43.253Z,94838.44
2023-04-24T09:11:13.697Z,94829.47
2023-04-24T09:13:46.067Z,94833.63
2023-04-24T09:16:16.392Z,94836.50
2023-04-24T09:18:46.031Z,94830.75
2023-04-24T09:21:16.165Z,94835.13
2023-04-24T09:23:45.901Z,94837.94
2023-04-24T09:26:15.877Z,94833.47
2023-04-24T09:28:47.148Z,94829.84
2023-04-24T09:31:23.147Z,94832.47
2023-04-24T09:34:01.254Z,94829.78
2023-04-24T09:36:35.010Z,94837.25
2023-04-24T09:39:06.302Z,94825.25
2023-04-24T09:41:36.422Z,94835.81
2023-04-24T09:44:18.125Z,94819.09
2023-04-24T09:46:52.686Z,94824.47
2023-04-24T09:49:26.596Z,94821.38
2023-04-24T09:52:06.685Z,94824.00
2023-04-24T09:54:37.690Z,94827.78
2023-04-24T09:57:10.032Z,94824.56
2023-04-24T09:59:46.198Z,94826.13
2023-04-24T10:02:21.450Z,94829.53
2023-04-24T10:04:58.056Z,94836.34
2023-04-24T10:07:28.899Z,94815.50
2023-04-24T10:09:58.499Z,94817.91
2023-04-24T10:12:29.971Z,94805.69
2023-04-24T10:15:02.751Z,94800.50
2023-04-24T10:17:32.523Z,94809.72
2023-04-24T10:20:03.944Z,94810.75
2023-04-24T10:22:34.370Z,94803.59
2023-04-24T10:25:08.650Z,94821.97
2023-04-24T10:27:40.099Z,94860.94
2023-04-24T10:30:15.614Z,94873.84
2023-04-24T10:32:45.437Z,94880.59
2023-04-24T10:35:18.038Z,94871.41
2023-04-24T10:37:53.123Z,94865.75
2023-04-24T10:40:30.142Z,94866.94
2023-04-24T10:42:59.793Z,94865.38
2023-04-24T10:45:30.925Z,94858.47
2023-04-24T10:48:05.995Z,94854.91
2023-04-24T10:50:47.815Z,94832.81
2023-04-24T10:53:20.199Z,94842.19
2023-04-24T10:55:52.286Z,94842.16
2023-04-24T10:58:26.234Z,94839.44
2023-04-24T11:01:02.387Z,94838.53
2023-04-24T11:03:34.917Z,94843.59
2023-04-24T11:06:07.655Z,94856.22
2023-04-24T11:08:41.745Z,94861.31
2023-04-24T11:11:14.921Z,94869.06
2023-04-24T11:14:11.983Z,94859.59
2023-04-24T11:16:53.970Z,94852.94
2023-04-24T11:19:26.387Z,94857.81
2023-04-24T11:22:02.322Z,94853.22
2023-04-24T11:24:40.490Z,94846.75
2023-04-24T11:27:21.246Z,94853.44
2023-04-24T11:30:02.030Z,94858.47
2023-04-24T11:32:38.357Z,94851.59
2023-04-24T11:35:14.908Z,94845.63
2023-04-24T11:37:49.470Z,94842.91
2023-04-24T11:40:28.218Z,94858.22
2023-04-24T11:46:11.991Z,94829.16
2023-04-24T11:48:48.016Z,94837.91
2023-04-24T11:51:40.693Z,94840.13
2023-04-24T11:54:17.838Z,94841.50
2023-04-24T11:56:48.610Z,94834.28
2023-04-24T11:59:18.322Z,94829.00
2023-04-24T12:01:48.472Z,94831.00
2023-04-24T12:04:20.678Z,94813.19
2023-04-24T12:07:03.092Z,94821.09
2023-04-24T12:09:45.401Z,94837.34
2023-04-24T12:12:18.798Z,94822.19
2023-04-24T12:14:51.606Z,94825.44
2023-04-24T12:17:29.370Z,94816.59
2023-04-24T12:20:06.585Z,94805.16
2023-04-24T12:22:52.652Z,94809.81
2023-04-24T12:25:24.145Z,94810.34
2023-04-24T12:28:11.954Z,94820.38
2023-04-24T12:30:46.192Z,94822.19
2023-04-24T12:33:19.520Z,94820.31
2023-04-24T12:35:54.258Z,94819.00
2023-04-24T12:38:27.373Z,94820.19
2023-04-24T12:41:06.429Z,94822.94
2023-04-24T12:43:37.450Z,94830.16
2023-04-24T12:46:07.396Z,94844.06
2023-04-24T12:48:36.921Z,94854.53
2023-04-24T12:51:08.485Z,94851.34
2023-04-24T12:53:38.217Z,94856.91
2023-04-24T12:56:07.798Z,94844.41
2023-04-24T12:58:37.273Z,94849.72
2023-04-24T13:01:06.969Z,94836.91
2023-04-24T13:03:36.529Z,94841.53
2023-04-24T13:06:07.896Z,94833.53
2023-04-24T13:08:37.315Z,94832.72
2023-04-24T13:11:07.028Z,94817.13
2023-04-24T13:13:36.560Z,94824.28
2023-04-24T13:16:07.425Z,94825.31
2023-04-24T13:18:36.992Z,94829.25
2023-04-24T13:21:08.031Z,94828.13
2023-04-24T13:23:37.476Z,94836.59
2023-04-24T13:26:07.089Z,94832.69
2023-04-24T13:28:36.599Z,94838.31
2023-04-24T13:31:07.272Z,94838.38
2023-04-24T13:33:36.798Z,94837.81
2023-04-24T13:36:07.991Z,94838.59
2023-04-24T13:38:37.447Z,94842.53
2023-04-24T13:41:07.141Z,94843.41
2023-04-24T13:43:36.720Z,94859.78
2023-04-24T13:46:06.516Z,94859.31
2023-04-24T13:48:36.004Z,94861.13
2023-04-24T13:51:07.329Z,94865.22
2023-04-24T13:53:39.245Z,94861.41
2023-04-24T13:56:10.002Z,94863.94
2023-04-24T13:58:40.028Z,94879.03
2023-04-24T14:01:09.606Z,94862.94
2023-04-24T14:03:40.222Z,94867.84
2023-04-24T14:06:11.504Z,94865.03
2023-04-24T14:08:41.231Z,94865.03
2023-04-24T14:11:10.731Z,94869.13
2023-04-24T14:13:40.954Z,94868.69
2023-04-24T14:16:10.733Z,94870.72
2023-04-24T14:18:40.489Z,94879.09
2023-04-24T14:21:11.376Z,94871.19
2023-04-24T14:23:40.891Z,94869.09
2023-04-24T14:26:10.470Z,94873.38
2023-04-24T14:28:40.634Z,94873.28
2023-04-24T14:31:10.557Z,94870.09
2023-04-24T14:33:40.104Z,94865.63
2023-04-24T14:36:11.059Z,94863.25
2023-04-24T14:38:40.569Z,94876.06
2023-04-24T14:41:14.149Z,94873.78
2023-04-24T14:43:44.059Z,94872.59
2023-04-24T14:46:16.148Z,94862.78
2023-04-24T14:48:45.994Z,94860.72
2023-04-24T14:51:16.860Z,94869.59
2023-04-24T14:53:47.885Z,94858.81
2023-04-24T14:56:18.197Z,94869.09
2023-04-24T14:58:47.749Z,94861.59
2023-04-24T15:01:18.125Z,94874.38
2023-04-24T15:03:48.137Z,94872.66
2023-04-24T15:06:19.854Z,94883.38
2023-04-24T15:08:51.033Z,94906.31
2023-04-24T15:11:21.211Z,94893.91
2023-04-24T15:13:50.892Z,94885.63
2023-04-24T15:16:21.412Z,94892.72
2023-04-24T15:18:50.918Z,94896.03
2023-04-24T15:21:21.918Z,94902.59
2023-04-24T15:23:51.378Z,94906.94
2023-04-24T15:26:20.929Z,94915.38
2023-04-24T15:28:50.596Z,94907.25
2023-04-24T15:31:20.260Z,94907.72
2023-04-24T15:33:50.697Z,94897.91
2023-04-24T15:36:22.336Z,94912.31
2023-04-24T15:38:52.318Z,94904.31
2023-04-24T15:41:22.131Z,94902.41
2023-04-24T15:43:51.584Z,94902.91
2023-04-24T15:46:21.118Z,94903.81
2023-04-24T15:48:50.794Z,94909.97
2023-04-24T15:51:21.680Z,94909.84
2023-04-24T15:53:51.198Z,94895.84
2023-04-24T15:56:21.429Z,94908.13
2023-04-24T15:58:50.960Z,94911.22
2023-04-24T16:01:20.630Z,94918.16
2023-04-24T16:03:50.492Z,94920.75
2023-04-24T16:06:21.512Z,94921.22
2023-04-24T16:08:51.209Z,94927.97
2023-04-24T16:11:20.799Z,94925.63
2023-04-24T16:13:50.386Z,94934.09
2023-04-24T16:16:20.127Z,94925.06
2023-04-24T16:18:50.218Z,94938.97
2023-04-24T16:21:21.341Z,94926.19
2023-04-24T16:23:50.905Z,94933.25
2023-04-24T16:26:20.819Z,94934.56
2023-04-24T16:28:50.758Z,94942.34
2023-04-24T16:31:20.507Z,94934.84
2023-04-24T16:33:49.963Z,94946.94
2023-04-24T16:36:21.437Z,94947.31
2023-04-24T16:38:51.221Z,94945.94
2023-04-24T16:41:20.739Z,94945.56
2023-04-24T16:43:50.702Z,94941.88
2023-04-24T16:46:20.421Z,94935.31
2023-04-24T16:48:50.178Z,94947.84
2023-04-24T16:51:21.196Z,94947.41
2023-04-24T16:53:50.890Z,94944.84
2023-04-24T16:56:20.634Z,94943.97
2023-04-24T16:58:50.474Z,94939.16
2023-04-24T17:01:20.410Z,94949.47
2023-04-24T17:03:51.557Z,94944.75
2023-04-24T17:06:22.653Z,94956.38
2023-04-24T17:08:52.207Z,94949.44
2023-04-24T17:11:22.993Z,94945.72
2023-04-24T17:13:53.283Z,94954.59
2023-04-24T17:16:23.373Z,94954.22
2023-04-24T17:18:52.925Z,94950.25
2023-04-24T17:21:23.693Z,94954.88
2023-04-24T17:23:53.173Z,94954.97
2023-04-24T17:26:22.644Z,94953.97
2023-04-24T17:28:54.356Z,94960.44
2023-04-24T17:31:23.844Z,94969.09
2023-04-24T17:33:53.380Z,94969.44
2023-04-24T17:36:24.448Z,94964.72
2023-04-24T17:38:54.082Z,94969.31
2023-04-24T17:41:23.491Z,94979.81
2023-04-24T17:43:52.905Z,94970.19
2023-04-24T17:46:22.749Z,94967.00
2023-04-24T17:48:52.502Z,94978.03
2023-04-24T17:51:23.710Z,94976.97
2023-04-24T17:53:53.164Z,94978.97
2023-04-24T17:56:24.880Z,94985.25
2023-04-24T17:58:58.250Z,94982.34
2023-04-24T18:01:29.110Z,94985.38
2023-04-24T18:03:58.897Z,94980.38
2023-04-24T18:06:29.961Z,94986.31
2023-04-24T18:08:59.461Z,94992.03
2023-04-24T18:11:29.050Z,94997.69
2023-04-24T18:13:58.484Z,94996.94
2023-04-24T18:16:28.057Z,95000.47
2023-04-24T18:18:57.593Z,95009.34
2023-04-24T18:21:28.400Z,95001.84
2023-04-24T18:24:00.399Z,95011.25
2023-04-24T18:26:30.151Z,95011.25
2023-04-24T18:28:59.777Z,95010.72
2023-04-24T18:31:29.490Z,95012.28
2023-04-24T18:33:59.083Z,95011.50
2023-04-24T18:36:28.752Z,95014.97
2023-04-24T18:38:59.620Z,95018.69
2023-04-24T18:41:29.120Z,95022.72
2023-04-24T18:43:59.412Z,95027.81
2023-04-24T18:46:29.176Z,95030.47
2023-04-24T18:48:58.664Z,95030.47
2023-04-24T18:51:28.201Z,95023.47
2023-04-24T18:53:59.139Z,95027.47
2023-04-24T18:56:28.699Z,95035.22
2023-04-24T18:58:58.180Z,95030.38
2023-04-24T19:01:27.830Z,95030.91
2023-04-24T19:03:57.647Z,95035.16
2023-04-24T19:06:27.305Z,95045.03
2023-04-24T19:08:56.886Z,95047.72
2023-04-24T19:11:28.532Z,95048.28
2023-04-24T19:14:00.376Z,95054.16
2023-04-24T19:16:30.268Z,95049.03
2023-04-24T19:18:59.804Z,95058.09
2023-04-24T19:21:29.781Z,95054.34
2023-04-24T19:23:59.371Z,95058.28
2023-04-24T19:26:31.476Z,95060.91
2023-04-24T19:29:01.111Z,95063.28
2023-04-24T19:31:30.580Z,95066.44
2023-04-24T19:34:00.044Z,95059.97
2023-04-24T19:36:31.214Z,95059.91
2023-04-24T19:39:01.707Z,95056.91
2023-04-24T19:41:32.891Z,95063.53
2023-04-24T19:44:02.282Z,95057.59
2023-04-24T19:46:31.793Z,95054.59
2023-04-24T19:49:01.376Z,95055.06
2023-04-24T19:51:32.360Z,95050.72
2023-04-24T19:54:02.300Z,95065.34
2023-04-24T19:56:33.316Z,95058.38
2023-04-24T19:59:02.797Z,95063.09
2023-04-24T20:01:32.803Z,95061.19
2023-04-24T20:04:02.783Z,95067.00
2023-04-24T20:06:32.310Z,95067.25
2023-04-24T20:09:01.910Z,95066.44
2023-04-24T20:11:33.021Z,95065.63
2023-04-24T20:14:03.561Z,95063.75
2023-04-24T20:16:33.403Z,95061.09
2023-04-24T20:19:02.906Z,95059.72
2023-04-24T20:21:32.608Z,95072.22
2023-04-24T20:24:02.096Z,95071.41
2023-04-24T20:26:33.012Z,95075.44
2023-04-24T20:29:02.492Z,95071.16
2023-04-24T20:31:32.313Z,95076.75
2023-04-24T20:34:01.901Z,95071.69
2023-04-24T20:36:31.497Z,95068.94
2023-04-24T20:39:01.433Z,95065.16
2023-04-24T20:41:33.350Z,95069.44
2023-04-24T20:44:04.204Z,95065.41
2023-04-24T20:46:34.117Z,95066.72
2023-04-24T20:49:05.213Z,95064.31
2023-04-24T20:51:34.711Z,95056.59
2023-04-24T20:54:04.764Z,95062.00
2023-04-24T20:56:35.578Z,95053.53
2023-04-24T20:59:05.064Z,95063.69
2023-04-24T21:01:34.536Z,95072.78
2023-04-24T21:04:04.418Z,95072.19
2023-04-24T21:06:34.011Z,95071.06
2023-04-24T21:09:04.263Z,95071.50
2023-04-24T21:11:35.090Z,95070.88
2023-04-24T21:14:04.593Z,95071.63
2023-04-24T21:16:34.461Z,95072.88
2023-04-24T21:19:04.259Z,95077.34
2023-04-24T21:21:34.187Z,95070.91
2023-04-24T21:24:04.426Z,95076.47
2023-04-24T21:26:35.582Z,95075.50
2023-04-24T21:29:05.096Z,95070.66
2023-04-24T21:31:34.599Z,95064.50
2023-04-24T21:34:04.012Z,95066.56
2023-04-24T21:36:33.532Z,95063.50
2023-04-24T21:39:02.906Z,95065.72
2023-04-24T21:41:32.551Z,95058.34
2023-04-24T21:44:03.556Z,95058.91
2023-04-24T21:46:33.085Z,95054.69
2023-04-24T21:49:02.673Z,95051.16
2023-04-24T21:51:32.391Z,95051.44
2023-04-24T21:54:01.826Z,95050.78
2023-04-24T21:56:31.340Z,95050.00
2023-04-24T21:59:02.481Z,95049.00
2023-04-24T22:01:33.181Z,95041.03
2023-04-24T22:04:04.083Z,95039.69
2023-04-24T22:06:34.635Z,95038.38
2023-04-24T22:09:04.699Z,95046.38
2023-04-24T22:11:34.691Z,95040.03
2023-04-24T22:14:07.120Z,95034.38
2023-04-24T22:16:36.784Z,95042.34
2023-04-24T22:19:06.307Z,95037.06
2023-04-24T22:21:35.913Z,95034.63
2023-04-24T22:24:06.303Z,95038.41
2023-04-24T22:26:36.148Z,95030.69
2023-04-24T22:29:07.043Z,95029.34
2023-04-24T22:31:36.863Z,95016.72
2023-04-24T22:34:06.414Z,95017.78
2023-04-24T22:36:35.914Z,95019.09
2023-04-24T22:39:06.115Z,95014.31
2023-04-24T22:41:36.281Z,95002.53
2023-04-24T22:44:07.077Z,95003.31
2023-04-24T22:46:36.641Z,95004.13
2023-04-24T22:49:06.150Z,95010.78
2023-04-24T22:51:35.799Z,94995.81
2023-04-24T22:54:05.954Z,94998.69
2023-04-24T22:56:37.669Z,95000.81
2023-04-24T22:59:08.493Z,94999.44
2023-04-24T23:01:38.000Z,94992.44
2023-04-24T23:04:07.802Z,94986.03
2023-04-24T23:06:37.360Z,94984.38
2023-04-24T23:09:07.032Z,94987.09
2023-04-24T23:11:37.535Z,94981.97
2023-04-24T23:14:08.464Z,94979.84
2023-04-24T23:16:39.657Z,94982.03
2023-04-24T23:19:09.393Z,94982.56
2023-04-24T23:21:38.983Z,94975.41
2023-04-24T23:24:09.027Z,94980.19
2023-04-24T23:26:38.646Z,94976.47
2023-04-24T23:29:09.660Z,94976.16
2023-04-24T23:31:39.098Z,94975.09
2023-04-24T23:34:08.615Z,94965.72
2023-04-24T23:36:38.122Z,94967.56
2023-04-24T23:39:08.066Z,94964.06
2023-04-24T23:41:37.554Z,94964.38
2023-04-24T23:44:07.160Z,94959.34
2023-04-24T23:46:38.016Z,94960.91
2023-04-24T23:49:07.500Z,94946.19
2023-04-24T23:51:37.004Z,94942.19
2023-04-24T23:54:06.553Z,94952.63
2023-04-24T23:56:36.044Z,94952.97
2023-04-24T23:59:05.476Z,94949.81
